< Typhoon 196609 1966 Season Typhoon 196611 >
Typhoon 196610 (RITA)
General InformationTrack Information on Google Maps || Disaster Info.ResourceGoogle EarthGE AnimationAtom FeedGeoJSON
Detalied Best Track (Time Zone = UTC)
Year Month Day Hour Lat. Long. Pressure (hPa) Wind (kt) Class Image Chart
1966 8 1 18 14.5 144.5 1006 0 2 -- Chart
1966 8 2 00 15.0 145.0 1007 0 2 -- Chart
1966 8 2 06 15.4 145.0 1006 0 2 -- Chart
1966 8 2 12 15.7 144.8 1005 0 2 -- Chart
1966 8 2 18 16.0 144.6 1002 0 2 -- Chart
1966 8 3 00 16.4 144.5 1002 0 2 -- Chart
1966 8 3 06 17.2 144.1 1000 0 2 -- Chart
1966 8 3 12 18.5 143.6 998 0 2 -- Chart
1966 8 3 18 19.7 143.6 996 0 2 -- Chart
1966 8 4 00 20.6 143.8 992 0 9 -- Chart
1966 8 4 06 21.5 143.9 990 0 9 -- Chart
1966 8 4 12 22.3 143.8 988 0 9 -- Chart
1966 8 4 18 22.8 143.7 986 0 9 -- Chart
1966 8 5 00 24.0 143.6 984 0 9 -- Chart
1966 8 5 06 24.8 143.7 982 0 9 -- Chart
1966 8 5 12 25.8 143.9 980 0 9 -- Chart
1966 8 5 18 27.0 144.5 980 0 9 -- Chart
1966 8 6 00 27.8 144.8 982 0 9 -- Chart
1966 8 6 06 29.0 145.3 982 0 9 -- Chart
1966 8 6 12 30.2 146.0 982 0 9 -- Chart
1966 8 6 18 30.7 145.8 982 0 9 -- Chart
1966 8 7 00 31.2 145.5 980 0 9 -- Chart
1966 8 7 06 31.6 145.8 980 0 9 -- Chart
1966 8 7 12 32.4 146.5 980 0 9 -- Chart
1966 8 7 18 32.8 146.8 982 0 9 -- Chart
1966 8 8 00 33.5 147.3 982 0 9 -- Chart
1966 8 8 06 33.9 147.8 982 0 9 -- Chart
1966 8 8 12 34.3 148.5 982 0 9 -- Chart
1966 8 8 18 34.8 149.0 986 0 9 -- Chart
1966 8 9 00 35.3 149.8 988 0 9 -- Chart
1966 8 9 06 36.0 150.6 990 0 9 -- Chart
1966 8 9 12 36.8 152.0 990 0 9 -- Chart
1966 8 9 18 37.4 153.8 990 0 9 -- Chart
1966 8 10 00 37.7 155.5 990 0 9 -- Chart
1966 8 10 06 38.1 157.0 990 0 9 -- Chart
1966 8 10 12 38.5 158.5 990 0 9 -- Chart
1966 8 10 18 38.6 160.0 992 0 9 -- Chart
1966 8 11 00 39.0 163.0 998 0 2 -- Chart
1966 8 11 06 39.2 166.0 1000 0 2 -- Chart
1966 8 11 12 40.0 170.0 1000 0 2 -- Chart
1966 8 11 18 40.9 174.0 1000 0 2 -- Chart
1966 8 12 00 42.8 178.9 1002 0 2 -- Chart
1966 8 12 06 44.5 183.0 1004 0 2 -- Chart
Japan Meteorological Agency Best Track Data | Correction Date : 1989-06-01
< Typhoon 196609 1966 Season Typhoon 196611 >

Help